createdAt,value
2016-10-17T00:00:43.095Z,1011.94
2016-10-17T00:01:43.115Z,1011.92
2016-10-17T00:02:43.133Z,1011.91
2016-10-17T00:03:43.149Z,1011.93
2016-10-17T00:04:43.168Z,1011.96
2016-10-17T00:05:43.188Z,1011.97
2016-10-17T00:06:43.205Z,1012.02
2016-10-17T00:07:43.225Z,1012.01
2016-10-17T00:08:43.246Z,1012.04
2016-10-17T00:09:43.263Z,1012.05
2016-10-17T00:10:43.282Z,1012.08
2016-10-17T00:11:43.302Z,1012.05
2016-10-17T00:12:43.320Z,1012.05
2016-10-17T00:13:43.338Z,1012.04
2016-10-17T00:14:43.358Z,1012.08
2016-10-17T00:15:43.376Z,1012.04
2016-10-17T00:16:43.396Z,1012.08
2016-10-17T00:17:43.415Z,1012.08
2016-10-17T00:18:43.433Z,1012.1
2016-10-17T00:19:43.453Z,1012.09
2016-10-17T00:20:43.472Z,1012.11
2016-10-17T00:21:43.491Z,1012.1
2016-10-17T00:22:43.510Z,1012.11
2016-10-17T00:23:43.528Z,1012.11
2016-10-17T00:24:43.546Z,1012.12
2016-10-17T00:25:43.565Z,1012.11
2016-10-17T00:26:43.585Z,1012.15
2016-10-17T00:27:43.605Z,1012.17
2016-10-17T00:28:43.622Z,1012.15
2016-10-17T00:29:43.641Z,1012.14
2016-10-17T00:30:43.661Z,1012.13
2016-10-17T00:31:43.680Z,1012.14
2016-10-17T00:32:43.698Z,1012.13
2016-10-17T00:33:43.721Z,1012.13
2016-10-17T00:34:43.737Z,1012.16
2016-10-17T00:35:43.755Z,1012.14
2016-10-17T00:36:43.775Z,1012.12
2016-10-17T00:37:43.794Z,1012.14
2016-10-17T00:38:43.813Z,1012.15
2016-10-17T00:39:43.835Z,1012.16
2016-10-17T00:40:43.852Z,1012.15
2016-10-17T00:41:43.871Z,1012.12
2016-10-17T00:42:43.889Z,1012.14
2016-10-17T00:43:43.908Z,1012.17
2016-10-17T00:44:43.926Z,1012.17
2016-10-17T00:45:43.950Z,1012.13
2016-10-17T00:46:43.970Z,1012.14
2016-10-17T00:47:43.983Z,1012.18
2016-10-17T00:48:44.003Z,1012.15
2016-10-17T00:49:44.022Z,1012.17
2016-10-17T00:50:44.040Z,1012.18
2016-10-17T00:51:44.060Z,1012.19
2016-10-17T00:52:44.079Z,1012.2
2016-10-17T00:53:44.098Z,1012.2
2016-10-17T00:54:44.116Z,1012.17
2016-10-17T00:55:44.135Z,1012.22
2016-10-17T00:56:44.154Z,1012.2
2016-10-17T00:57:44.172Z,1012.16
2016-10-17T00:58:44.192Z,1012.13
2016-10-17T00:59:44.210Z,1012.12
2016-10-17T01:00:44.238Z,1012.17
2016-10-17T01:01:44.254Z,1012.17
2016-10-17T01:02:44.267Z,1012.15
2016-10-17T01:03:44.288Z,1012.14
2016-10-17T01:04:44.306Z,1012.11
2016-10-17T01:05:44.324Z,1012.09
2016-10-17T01:06:44.344Z,1012.13
2016-10-17T01:07:44.363Z,1012.18
2016-10-17T01:08:44.382Z,1012.15
2016-10-17T01:09:44.401Z,1012.11
2016-10-17T01:10:44.420Z,1012.13
2016-10-17T01:11:44.440Z,1012.12
2016-10-17T01:12:44.458Z,1012.16
2016-10-17T01:13:44.477Z,1012.15
2016-10-17T01:14:44.497Z,1012.19
2016-10-17T01:15:44.515Z,1012.2
2016-10-17T01:16:44.534Z,1012.17
2016-10-17T01:17:44.555Z,1012.18
2016-10-17T01:18:44.573Z,1012.18
2016-10-17T01:19:44.592Z,1012.2
2016-10-17T01:20:44.611Z,1012.18
2016-10-17T01:21:44.630Z,1012.19
2016-10-17T01:22:44.649Z,1012.18
2016-10-17T01:23:44.667Z,1012.14
2016-10-17T01:24:44.687Z,1012.16
2016-10-17T01:25:44.709Z,1012.18
2016-10-17T01:26:44.728Z,1012.14
2016-10-17T01:27:44.743Z,1012.15
2016-10-17T01:28:44.764Z,1012.11
2016-10-17T01:29:44.783Z,1012.07
2016-10-17T01:30:44.800Z,1012.11
2016-10-17T01:31:44.819Z,1012.13
2016-10-17T01:32:44.842Z,1012.06
2016-10-17T01:33:44.862Z,1012.09
2016-10-17T01:34:44.876Z,1012.09
2016-10-17T01:35:44.895Z,1012.08
2016-10-17T01:36:44.914Z,1012.05
2016-10-17T01:37:44.933Z,1012.08
2016-10-17T01:38:44.951Z,1012.07
2016-10-17T01:39:44.972Z,1012.11
2016-10-17T01:40:44.990Z,1012.09
2016-10-17T01:41:45.007Z,1012.07
2016-10-17T01:42:45.027Z,1012.06
2016-10-17T01:43:45.047Z,1012.06
2016-10-17T01:44:45.065Z,1012.06
2016-10-17T01:45:45.083Z,1012.06
2016-10-17T01:46:45.102Z,1012.07
2016-10-17T01:47:45.122Z,1012.08
2016-10-17T01:48:45.139Z,1012.09
2016-10-17T01:49:45.159Z,1012.12
2016-10-17T01:50:45.177Z,1012.08
2016-10-17T01:51:45.196Z,1012.08
2016-10-17T01:52:45.214Z,1012.09
2016-10-17T01:53:45.234Z,1012.06
2016-10-17T01:54:45.252Z,1012.07
2016-10-17T01:55:45.271Z,1012.08
2016-10-17T01:56:45.290Z,1012.13
2016-10-17T01:57:45.308Z,1012.09
2016-10-17T01:58:45.329Z,1012.13
2016-10-17T01:59:45.346Z,1012.1
2016-10-17T02:00:45.366Z,1012.11
2016-10-17T02:01:45.385Z,1012.11
2016-10-17T02:02:45.403Z,1012.07
2016-10-17T02:03:45.422Z,1012.09
2016-10-17T02:04:45.440Z,1012.1
2016-10-17T02:05:45.461Z,1012.09
2016-10-17T02:06:45.479Z,1012.1
2016-10-17T02:07:45.497Z,1012.1
2016-10-17T02:08:45.516Z,1012.14
2016-10-17T02:09:45.535Z,1012.09
2016-10-17T02:10:45.554Z,1012.1
2016-10-17T02:11:45.575Z,1012.12
2016-10-17T02:12:45.593Z,1012.09
2016-10-17T02:13:45.611Z,1012.1
2016-10-17T02:14:45.629Z,1012.12
2016-10-17T02:15:45.648Z,1012.07
2016-10-17T02:16:45.667Z,1012.05
2016-10-17T02:17:45.687Z,1012.03
2016-10-17T02:18:45.704Z,1011.99
2016-10-17T02:19:45.724Z,1011.94
2016-10-17T02:20:45.743Z,1011.97
2016-10-17T02:21:45.763Z,1011.99
2016-10-17T02:22:45.780Z,1012.01
2016-10-17T02:23:45.799Z,1011.96
2016-10-17T02:24:45.818Z,1011.97
2016-10-17T02:25:45.836Z,1011.98
2016-10-17T02:26:45.855Z,1011.97
2016-10-17T02:27:45.874Z,1011.97
2016-10-17T02:28:45.893Z,1011.96
2016-10-17T02:29:45.911Z,1011.96
2016-10-17T02:30:45.931Z,1011.96
2016-10-17T02:31:45.951Z,1011.95
2016-10-17T02:32:45.968Z,1011.91
2016-10-17T02:33:45.987Z,1011.99
2016-10-17T02:34:46.006Z,1011.95
2016-10-17T02:35:46.026Z,1011.93
2016-10-17T02:36:46.043Z,1011.93
2016-10-17T02:37:46.063Z,1011.92
2016-10-17T02:38:46.087Z,1011.95
2016-10-17T02:39:46.101Z,1011.92
2016-10-17T02:40:46.137Z,1011.93
2016-10-17T02:41:46.139Z,1011.9
2016-10-17T02:42:46.238Z,1011.93
2016-10-17T02:43:46.274Z,1011.94
2016-10-17T02:44:46.195Z,1011.97
2016-10-17T02:45:46.213Z,1011.9
2016-10-17T02:46:46.234Z,1011.95
2016-10-17T02:47:46.251Z,1011.96
2016-10-17T02:48:46.270Z,1011.97
2016-10-17T02:49:46.290Z,1011.95
2016-10-17T02:50:46.379Z,1011.92
2016-10-17T02:51:46.327Z,1011.91
2016-10-17T02:52:46.346Z,1011.95
2016-10-17T02:53:46.366Z,1011.9
2016-10-17T02:54:46.384Z,1011.89
2016-10-17T02:55:46.402Z,1011.95
2016-10-17T02:56:46.422Z,1011.96
2016-10-17T02:57:46.453Z,1011.94
2016-10-17T02:58:46.467Z,1011.96
2016-10-17T02:59:46.497Z,1011.98
2016-10-17T03:00:46.497Z,1011.97
2016-10-17T03:01:46.527Z,1011.99
2016-10-17T03:02:46.534Z,1011.94
2016-10-17T03:03:46.577Z,1011.94
2016-10-17T03:04:46.601Z,1011.95
2016-10-17T03:05:46.590Z,1011.93
2016-10-17T03:06:46.689Z,1011.93
2016-10-17T03:07:46.637Z,1011.91
2016-10-17T03:08:46.648Z,1011.95
2016-10-17T03:09:46.668Z,1011.92
2016-10-17T03:10:46.684Z,1011.94
2016-10-17T03:11:46.704Z,1011.95
2016-10-17T03:12:46.722Z,1011.96
2016-10-17T03:13:46.741Z,1011.98
2016-10-17T03:14:46.761Z,1011.95
2016-10-17T03:15:46.779Z,1011.97
2016-10-17T03:16:46.797Z,1011.95
2016-10-17T03:17:46.816Z,1011.94
2016-10-17T03:18:46.835Z,1011.93
2016-10-17T03:19:46.855Z,1011.86
2016-10-17T03:20:46.873Z,1011.91
2016-10-17T03:21:46.892Z,1011.89
2016-10-17T03:22:46.911Z,1011.9
2016-10-17T03:23:46.929Z,1011.93
2016-10-17T03:24:46.949Z,1011.92
2016-10-17T03:25:46.966Z,1011.94
2016-10-17T03:26:46.987Z,1011.94
2016-10-17T03:27:47.004Z,1011.97
2016-10-17T03:28:47.024Z,1011.94
2016-10-17T03:29:47.042Z,1011.94
2016-10-17T03:30:47.061Z,1011.91
2016-10-17T03:31:47.080Z,1011.88
2016-10-17T03:32:47.097Z,1011.88
2016-10-17T03:33:47.118Z,1011.91
2016-10-17T03:34:47.136Z,1011.89
2016-10-17T03:35:47.154Z,1011.93
2016-10-17T03:36:47.173Z,1011.92
2016-10-17T03:37:47.192Z,1011.92
2016-10-17T03:38:47.210Z,1011.92
2016-10-17T03:39:47.229Z,1011.93
2016-10-17T03:40:47.248Z,1011.9
2016-10-17T03:41:47.267Z,1011.92
2016-10-17T03:42:47.285Z,1011.94
2016-10-17T03:43:47.304Z,1011.95
2016-10-17T03:44:47.323Z,1011.94
2016-10-17T03:45:47.341Z,1011.97
2016-10-17T03:46:47.359Z,1011.96
2016-10-17T03:47:47.384Z,1011.96
2016-10-17T03:48:47.400Z,1011.97
2016-10-17T03:49:47.416Z,1011.97
2016-10-17T03:50:47.435Z,1011.98
2016-10-17T03:51:47.454Z,1011.95
2016-10-17T03:52:47.474Z,1012.03
2016-10-17T03:53:47.492Z,1012
2016-10-17T03:54:47.510Z,1012.04
2016-10-17T03:55:47.530Z,1012.02
2016-10-17T03:56:47.547Z,1012
2016-10-17T03:57:47.565Z,1011.98
2016-10-17T03:58:47.585Z,1011.98
2016-10-17T03:59:47.604Z,1011.96
2016-10-17T04:00:47.621Z,1011.99
2016-10-17T04:01:47.641Z,1011.97
2016-10-17T04:02:47.708Z,1011.96
2016-10-17T04:03:47.678Z,1011.96
2016-10-17T04:04:47.716Z,1011.97
2016-10-17T04:05:47.734Z,1011.98
2016-10-17T04:06:47.734Z,1011.98
2016-10-17T04:07:47.765Z,1011.99
2016-10-17T04:08:47.771Z,1012
2016-10-17T04:09:47.789Z,1012.03
2016-10-17T04:10:47.815Z,1011.98
2016-10-17T04:11:47.826Z,1011.96
2016-10-17T04:12:47.845Z,1011.99
2016-10-17T04:13:47.864Z,1011.98
2016-10-17T04:14:47.883Z,1011.93
2016-10-17T04:15:47.901Z,1011.99
2016-10-17T04:16:47.919Z,1011.95
2016-10-17T04:17:47.938Z,1011.95
2016-10-17T04:18:47.956Z,1011.93
2016-10-17T04:19:47.975Z,1011.9
2016-10-17T04:20:47.994Z,1011.9
2016-10-17T04:21:48.014Z,1011.92
2016-10-17T04:22:48.030Z,1011.86
2016-10-17T04:23:48.049Z,1011.89
2016-10-17T04:24:48.069Z,1011.86
2016-10-17T04:25:48.088Z,1011.86
2016-10-17T04:26:48.108Z,1011.87
2016-10-17T04:27:48.125Z,1011.84
2016-10-17T04:28:48.144Z,1011.84
2016-10-17T04:29:48.161Z,1011.81
2016-10-17T04:30:48.180Z,1011.81
2016-10-17T04:31:48.264Z,1011.79
2016-10-17T04:32:48.219Z,1011.75
2016-10-17T04:33:48.236Z,1011.77
2016-10-17T04:34:48.255Z,1011.76
2016-10-17T04:35:48.275Z,1011.77
2016-10-17T04:36:48.296Z,1011.77
2016-10-17T04:37:48.310Z,1011.77
2016-10-17T04:38:48.329Z,1011.76
2016-10-17T04:39:48.347Z,1011.79
2016-10-17T04:40:48.365Z,1011.79
2016-10-17T04:41:48.435Z,1011.82
2016-10-17T04:42:48.405Z,1011.8
2016-10-17T04:43:48.421Z,1011.81
2016-10-17T04:44:48.439Z,1011.8
2016-10-17T04:45:48.458Z,1011.84
2016-10-17T04:46:48.478Z,1011.8
2016-10-17T04:47:48.494Z,1011.83
2016-10-17T04:48:48.513Z,1011.81
2016-10-17T04:49:48.534Z,1011.8
2016-10-17T04:50:48.551Z,1011.82
2016-10-17T04:51:48.582Z,1011.82
2016-10-17T04:52:48.589Z,1011.83
2016-10-17T04:53:48.607Z,1011.81
2016-10-17T04:54:48.625Z,1011.81
2016-10-17T04:55:48.643Z,1011.79
2016-10-17T04:56:48.662Z,1011.83
2016-10-17T04:57:48.694Z,1011.83
2016-10-17T04:58:48.698Z,1011.84
2016-10-17T04:59:48.718Z,1011.87
2016-10-17T05:00:48.743Z,1011.81
2016-10-17T05:01:48.755Z,1011.81
2016-10-17T05:02:48.772Z,1011.84
2016-10-17T05:03:48.796Z,1011.77
2016-10-17T05:04:48.810Z,1011.78
2016-10-17T05:05:48.828Z,1011.77
2016-10-17T05:06:48.847Z,1011.74
2016-10-17T05:07:48.865Z,1011.75
2016-10-17T05:08:48.884Z,1011.77
2016-10-17T05:09:48.902Z,1011.74
2016-10-17T05:10:48.920Z,1011.78
2016-10-17T05:11:48.940Z,1011.79
2016-10-17T05:12:48.958Z,1011.77
2016-10-17T05:13:48.975Z,1011.79
2016-10-17T05:14:48.994Z,1011.78
2016-10-17T05:15:49.013Z,1011.8
2016-10-17T05:16:49.214Z,1011.78
2016-10-17T05:17:49.049Z,1011.78
2016-10-17T05:18:49.068Z,1011.76
2016-10-17T05:19:49.087Z,1011.75
2016-10-17T05:20:49.104Z,1011.77
2016-10-17T05:21:49.125Z,1011.73
2016-10-17T05:22:49.143Z,1011.73
2016-10-17T05:23:49.162Z,1011.74
2016-10-17T05:24:49.179Z,1011.75
2016-10-17T05:25:49.197Z,1011.74
2016-10-17T05:26:49.216Z,1011.76
2016-10-17T05:27:49.235Z,1011.76
2016-10-17T05:28:49.253Z,1011.78
2016-10-17T05:29:49.271Z,1011.76
2016-10-17T05:30:49.291Z,1011.74
2016-10-17T05:31:49.307Z,1011.76
2016-10-17T05:32:49.326Z,1011.73
2016-10-17T05:33:49.353Z,1011.76
2016-10-17T05:34:49.364Z,1011.72
2016-10-17T05:35:49.381Z,1011.73
2016-10-17T05:36:49.400Z,1011.73
2016-10-17T05:37:49.419Z,1011.7
2016-10-17T05:38:49.445Z,1011.72
2016-10-17T05:39:49.455Z,1011.74
2016-10-17T05:40:49.474Z,1011.75
2016-10-17T05:41:49.613Z,1011.79
2016-10-17T05:42:49.510Z,1011.77
2016-10-17T05:43:49.531Z,1011.79
2016-10-17T05:44:49.548Z,1011.79
2016-10-17T05:45:49.567Z,1011.85
2016-10-17T05:46:49.584Z,1011.84
2016-10-17T05:47:49.602Z,1011.79
2016-10-17T05:48:49.621Z,1011.82
2016-10-17T05:49:49.640Z,1011.81
2016-10-17T05:50:49.657Z,1011.83
2016-10-17T05:51:49.676Z,1011.81
2016-10-17T05:52:49.695Z,1011.77
2016-10-17T05:53:49.718Z,1011.79
2016-10-17T05:54:49.731Z,1011.83
2016-10-17T05:55:49.750Z,1011.79
2016-10-17T05:56:49.768Z,1011.8
2016-10-17T05:57:49.786Z,1011.83
2016-10-17T05:58:49.805Z,1011.83
2016-10-17T05:59:49.822Z,1011.84
2016-10-17T06:00:49.842Z,1011.88
2016-10-17T06:01:49.860Z,1011.88
2016-10-17T06:02:49.879Z,1011.93
2016-10-17T06:03:49.899Z,1011.89
2016-10-17T06:04:49.915Z,1011.86
2016-10-17T06:05:49.934Z,1011.88
2016-10-17T06:06:49.954Z,1011.86
2016-10-17T06:07:49.972Z,1011.89
2016-10-17T06:08:49.989Z,1011.89
2016-10-17T06:09:50.009Z,1011.91
2016-10-17T06:10:50.026Z,1011.94
2016-10-17T06:11:50.044Z,1011.99
2016-10-17T06:12:50.063Z,1011.92
2016-10-17T06:13:50.081Z,1011.95
2016-10-17T06:14:50.100Z,1012.01
2016-10-17T06:15:50.117Z,1011.99
2016-10-17T06:16:50.136Z,1011.99
2016-10-17T06:17:50.156Z,1011.99
2016-10-17T06:18:50.175Z,1011.98
2016-10-17T06:19:50.199Z,1012.05
2016-10-17T06:20:50.211Z,1012.05
2016-10-17T06:21:50.230Z,1011.97
2016-10-17T06:22:50.251Z,1012.03
2016-10-17T06:23:50.265Z,1012.03
2016-10-17T06:24:50.284Z,1011.97
2016-10-17T06:25:50.302Z,1012.02
2016-10-17T06:26:50.320Z,1012.03
2016-10-17T06:27:50.340Z,1012.03
2016-10-17T06:28:50.359Z,1011.99
2016-10-17T06:29:50.376Z,1011.99
2016-10-17T06:30:50.393Z,1012
2016-10-17T06:31:50.412Z,1011.99
2016-10-17T06:32:50.431Z,1011.94
2016-10-17T06:33:50.449Z,1011.94
2016-10-17T06:34:50.468Z,1011.92
2016-10-17T06:35:50.489Z,1011.89
2016-10-17T06:36:50.505Z,1011.91
2016-10-17T06:37:50.524Z,1011.82
2016-10-17T06:38:50.541Z,1011.87
2016-10-17T06:39:50.560Z,1011.86
2016-10-17T06:40:50.579Z,1011.85
2016-10-17T06:41:50.599Z,1011.87
2016-10-17T06:42:50.620Z,1011.9
2016-10-17T06:43:50.634Z,1011.86
2016-10-17T06:44:50.653Z,1011.87
2016-10-17T06:45:50.671Z,1011.86
2016-10-17T06:46:50.690Z,1011.85
2016-10-17T06:47:50.709Z,1011.81
2016-10-17T06:48:50.727Z,1011.85
2016-10-17T06:49:50.745Z,1011.87
2016-10-17T06:50:50.765Z,1011.83
2016-10-17T06:51:50.783Z,1011.78
2016-10-17T06:52:50.800Z,1011.8
2016-10-17T06:53:50.819Z,1011.76
2016-10-17T06:54:50.838Z,1011.73
2016-10-17T06:55:50.856Z,1011.72
2016-10-17T06:56:50.876Z,1011.73
2016-10-17T06:57:50.896Z,1011.76
2016-10-17T06:58:50.914Z,1011.79
2016-10-17T06:59:50.929Z,1011.73
2016-10-17T07:00:50.948Z,1011.76
2016-10-17T07:01:50.968Z,1011.8
2016-10-17T07:02:50.987Z,1011.8
2016-10-17T07:03:51.009Z,1011.78
2016-10-17T07:04:51.025Z,1011.77
2016-10-17T07:05:51.041Z,1011.81
2016-10-17T07:06:51.069Z,1011.82
2016-10-17T07:07:51.078Z,1011.86
2016-10-17T07:08:51.098Z,1011.82
2016-10-17T07:09:51.116Z,1011.81
2016-10-17T07:10:51.134Z,1011.78
2016-10-17T07:11:51.152Z,1011.77
2016-10-17T07:12:51.171Z,1011.79
2016-10-17T07:13:51.191Z,1011.8
2016-10-17T07:14:51.209Z,1011.8
2016-10-17T07:15:51.228Z,1011.82
2016-10-17T07:16:51.246Z,1011.83
2016-10-17T07:17:51.264Z,1011.83
2016-10-17T07:18:51.283Z,1011.88
2016-10-17T07:19:51.317Z,1011.88
2016-10-17T07:20:51.320Z,1011.89
2016-10-17T07:21:51.338Z,1011.89
2016-10-17T07:22:51.357Z,1011.89
2016-10-17T07:23:51.375Z,1011.86
2016-10-17T07:24:51.394Z,1011.91
2016-10-17T07:25:51.412Z,1011.88
2016-10-17T07:26:51.431Z,1011.87
2016-10-17T07:27:51.450Z,1011.87
2016-10-17T07:28:51.471Z,1011.91
2016-10-17T07:29:51.487Z,1011.9
2016-10-17T07:30:51.506Z,1011.89
2016-10-17T07:31:51.525Z,1011.88
2016-10-17T07:32:51.543Z,1011.87
2016-10-17T07:33:51.561Z,1011.81
2016-10-17T07:34:51.581Z,1011.8
2016-10-17T07:35:51.599Z,1011.83
2016-10-17T07:36:51.619Z,1011.76
2016-10-17T07:37:51.637Z,1011.78
2016-10-17T07:38:51.655Z,1011.78
2016-10-17T07:39:51.676Z,1011.81
2016-10-17T07:40:51.692Z,1011.78
2016-10-17T07:41:51.713Z,1011.79
2016-10-17T07:42:51.738Z,1011.78
2016-10-17T07:43:51.752Z,1011.78
2016-10-17T07:44:51.768Z,1011.77
2016-10-17T07:45:51.786Z,1011.77
2016-10-17T07:46:51.807Z,1011.72
2016-10-17T07:47:51.937Z,1011.7
2016-10-17T07:48:51.844Z,1011.72
2016-10-17T07:49:51.861Z,1011.7
2016-10-17T07:50:51.887Z,1011.72
2016-10-17T07:51:51.899Z,1011.74
2016-10-17T07:52:51.918Z,1011.69
2016-10-17T07:53:51.938Z,1011.73
2016-10-17T07:54:51.954Z,1011.74
2016-10-17T07:55:52.086Z,1011.75
2016-10-17T07:56:52.107Z,1011.75
2016-10-17T07:57:52.123Z,1011.78
2016-10-17T07:58:52.143Z,1011.81
2016-10-17T08:00:52.070Z,1011.82
2016-10-17T08:01:52.379Z,1011.79
2016-10-17T08:02:52.122Z,1011.84
2016-10-17T08:03:52.131Z,1011.85
2016-10-17T08:04:52.258Z,1011.84
2016-10-17T08:05:52.280Z,1011.87
2016-10-17T08:06:52.308Z,1011.87
2016-10-17T08:07:52.292Z,1011.89
2016-10-17T08:08:52.325Z,1011.85
2016-10-17T08:09:52.324Z,1011.82
2016-10-17T08:10:52.258Z,1011.8
2016-10-17T08:11:52.278Z,1011.85
2016-10-17T08:12:52.295Z,1011.84
2016-10-17T08:13:52.314Z,1011.84
2016-10-17T08:14:52.333Z,1011.86
2016-10-17T08:15:52.353Z,1011.8
2016-10-17T08:16:52.369Z,1011.78
2016-10-17T08:17:52.389Z,1011.74
2016-10-17T08:18:52.409Z,1011.79
2016-10-17T08:19:52.426Z,1011.76
2016-10-17T08:20:52.447Z,1011.76
2016-10-17T08:21:52.469Z,1011.75
2016-10-17T08:22:52.484Z,1011.7
2016-10-17T08:23:52.502Z,1011.74
2016-10-17T08:24:52.524Z,1011.72
2016-10-17T08:25:52.541Z,1011.77
2016-10-17T08:26:52.560Z,1011.78
2016-10-17T08:27:52.579Z,1011.81
2016-10-17T08:28:52.598Z,1011.74
2016-10-17T08:29:52.619Z,1011.71
2016-10-17T08:30:52.638Z,1011.69
2016-10-17T08:31:52.658Z,1011.66
2016-10-17T08:32:52.675Z,1011.67
2016-10-17T08:33:52.696Z,1011.68
2016-10-17T08:34:52.714Z,1011.67
2016-10-17T08:35:52.732Z,1011.69
2016-10-17T08:36:52.753Z,1011.68
2016-10-17T08:37:52.773Z,1011.67
2016-10-17T08:38:52.790Z,1011.61
2016-10-17T08:39:52.925Z,1011.58
2016-10-17T08:40:52.830Z,1011.56
2016-10-17T08:41:52.849Z,1011.55
2016-10-17T08:42:52.867Z,1011.56
2016-10-17T08:43:52.886Z,1011.61
2016-10-17T08:44:52.906Z,1011.6
2016-10-17T08:45:52.925Z,1011.65
2016-10-17T08:46:52.944Z,1011.66
2016-10-17T08:47:52.965Z,1011.68
2016-10-17T08:48:52.983Z,1011.66
2016-10-17T08:49:53.002Z,1011.63
2016-10-17T08:50:53.021Z,1011.67
2016-10-17T08:51:53.042Z,1011.64
2016-10-17T08:52:53.060Z,1011.61
2016-10-17T08:53:53.090Z,1011.68
2016-10-17T08:54:53.099Z,1011.65
2016-10-17T08:55:53.120Z,1011.66
2016-10-17T08:56:53.138Z,1011.61
2016-10-17T08:57:53.157Z,1011.63
2016-10-17T08:58:53.179Z,1011.62
2016-10-17T08:59:53.196Z,1011.59
2016-10-17T09:00:53.215Z,1011.58
2016-10-17T09:01:53.238Z,1011.6
2016-10-17T09:02:53.259Z,1011.6
2016-10-17T09:03:53.320Z,1011.61
2016-10-17T09:04:53.358Z,1011.58
2016-10-17T09:05:53.314Z,1011.59
2016-10-17T09:06:53.334Z,1011.59
2016-10-17T09:07:53.353Z,1011.59
2016-10-17T09:08:53.372Z,1011.58
2016-10-17T09:09:53.392Z,1011.63
2016-10-17T09:10:53.412Z,1011.6
2016-10-17T09:11:53.432Z,1011.58
2016-10-17T09:12:53.528Z,1011.6
2016-10-17T09:13:53.472Z,1011.57
2016-10-17T09:14:53.491Z,1011.6
2016-10-17T09:15:53.511Z,1011.61
2016-10-17T09:16:53.530Z,1011.6
2016-10-17T09:17:53.553Z,1011.57
2016-10-17T09:18:53.572Z,1011.55
2016-10-17T09:19:53.591Z,1011.59
2016-10-17T09:20:53.610Z,1011.59
2016-10-17T09:21:53.630Z,1011.62
2016-10-17T09:22:53.650Z,1011.62
2016-10-17T09:23:53.670Z,1011.6
2016-10-17T09:24:53.689Z,1011.59
2016-10-17T09:25:53.709Z,1011.61
2016-10-17T09:26:53.728Z,1011.58
2016-10-17T09:27:53.749Z,1011.59
2016-10-17T09:28:53.770Z,1011.6
2016-10-17T09:29:53.788Z,1011.53
2016-10-17T09:30:53.808Z,1011.58
2016-10-17T09:31:53.828Z,1011.58
2016-10-17T09:32:53.848Z,1011.54
2016-10-17T09:33:53.868Z,1011.52
2016-10-17T09:34:53.888Z,1011.55
2016-10-17T09:35:53.909Z,1011.54
2016-10-17T09:36:53.928Z,1011.55
2016-10-17T09:37:53.948Z,1011.54
2016-10-17T09:38:53.969Z,1011.53
2016-10-17T09:39:53.988Z,1011.56
2016-10-17T09:40:54.009Z,1011.59
2016-10-17T09:41:54.029Z,1011.58
2016-10-17T09:42:54.050Z,1011.55
2016-10-17T09:43:54.067Z,1011.56
2016-10-17T09:44:54.093Z,1011.58
2016-10-17T09:45:54.220Z,1011.55
2016-10-17T09:46:54.129Z,1011.55
2016-10-17T09:47:54.154Z,1011.53
2016-10-17T09:48:54.169Z,1011.56
2016-10-17T09:49:54.189Z,1011.54
2016-10-17T09:50:54.215Z,1011.56
2016-10-17T09:51:54.481Z,1011.55
2016-10-17T09:52:54.250Z,1011.56
2016-10-17T09:53:54.272Z,1011.5
2016-10-17T09:54:54.289Z,1011.49
2016-10-17T09:55:54.310Z,1011.55
2016-10-17T09:56:54.330Z,1011.55
2016-10-17T09:57:54.353Z,1011.59
2016-10-17T09:58:54.370Z,1011.5
2016-10-17T09:59:54.412Z,1011.52
2016-10-17T10:00:54.412Z,1011.52
2016-10-17T10:01:54.433Z,1011.56
2016-10-17T10:02:54.452Z,1011.57
2016-10-17T10:03:54.477Z,1011.55
2016-10-17T10:04:54.493Z,1011.53
2016-10-17T10:05:54.513Z,1011.53
2016-10-17T10:06:54.535Z,1011.54
2016-10-17T10:07:54.555Z,1011.51
2016-10-17T10:08:54.575Z,1011.49
2016-10-17T10:09:54.595Z,1011.43
2016-10-17T10:10:54.617Z,1011.38
2016-10-17T10:11:54.639Z,1011.39
2016-10-17T10:12:54.658Z,1011.4
2016-10-17T10:13:54.679Z,1011.43
2016-10-17T10:14:54.700Z,1011.41
2016-10-17T10:15:54.720Z,1011.42
2016-10-17T10:16:54.740Z,1011.4
2016-10-17T10:17:54.769Z,1011.38
2016-10-17T10:18:54.782Z,1011.36
2016-10-17T10:19:54.803Z,1011.34
2016-10-17T10:20:54.823Z,1011.36
2016-10-17T10:21:54.844Z,1011.33
2016-10-17T10:22:54.865Z,1011.35
2016-10-17T10:23:54.926Z,1011.34
2016-10-17T10:24:54.906Z,1011.33
2016-10-17T10:25:54.927Z,1011.32
2016-10-17T10:26:54.949Z,1011.34
2016-10-17T10:27:54.969Z,1011.28
2016-10-17T10:28:54.997Z,1011.29
2016-10-17T10:29:55.012Z,1011.31
2016-10-17T10:30:55.033Z,1011.31
2016-10-17T10:31:55.053Z,1011.28
2016-10-17T10:32:55.074Z,1011.26
2016-10-17T10:33:55.095Z,1011.26
2016-10-17T10:34:55.117Z,1011.2
2016-10-17T10:35:55.137Z,1011.23
2016-10-17T10:36:55.159Z,1011.22
2016-10-17T10:37:55.180Z,1011.19
2016-10-17T10:38:55.200Z,1011.17
2016-10-17T10:39:55.307Z,1011.17
2016-10-17T10:40:55.244Z,1011.16
2016-10-17T10:41:55.266Z,1011.2
2016-10-17T10:42:55.284Z,1011.18
2016-10-17T10:43:55.307Z,1011.24
2016-10-17T10:44:55.328Z,1011.22
2016-10-17T10:45:55.349Z,1011.28
2016-10-17T10:46:55.370Z,1011.28
2016-10-17T10:47:55.392Z,1011.35
2016-10-17T10:48:55.413Z,1011.34
2016-10-17T10:49:55.434Z,1011.33
2016-10-17T10:50:55.457Z,1011.35
2016-10-17T10:51:55.477Z,1011.36
2016-10-17T10:52:55.499Z,1011.38
2016-10-17T10:53:55.519Z,1011.34
2016-10-17T10:54:55.541Z,1011.35
2016-10-17T10:55:55.563Z,1011.38
2016-10-17T10:56:55.583Z,1011.35
2016-10-17T10:57:55.606Z,1011.36
2016-10-17T10:58:55.627Z,1011.33
2016-10-17T10:59:55.648Z,1011.32
2016-10-17T11:00:55.669Z,1011.29
2016-10-17T11:01:55.691Z,1011.28
2016-10-17T11:02:55.712Z,1011.3
2016-10-17T11:03:55.734Z,1011.26
2016-10-17T11:04:55.755Z,1011.23
2016-10-17T11:05:55.777Z,1011.19
2016-10-17T11:06:55.805Z,1011.17
2016-10-17T11:07:55.819Z,1011.18
2016-10-17T11:08:55.940Z,1011.16
2016-10-17T11:09:55.871Z,1011.19
2016-10-17T11:10:55.884Z,1011.15
2016-10-17T11:11:55.905Z,1011.2
2016-10-17T11:12:55.937Z,1011.21
2016-10-17T11:13:55.950Z,1011.2
2016-10-17T11:14:55.972Z,1011.19
2016-10-17T11:15:55.993Z,1011.16
2016-10-17T11:16:56.015Z,1011.18
2016-10-17T11:17:56.036Z,1011.14
2016-10-17T11:18:56.058Z,1011.13
2016-10-17T11:19:56.078Z,1011.09
2016-10-17T11:20:56.101Z,1011.08
2016-10-17T11:21:56.123Z,1011.1
2016-10-17T11:22:56.143Z,1011.06
2016-10-17T11:23:56.166Z,1011.1
2016-10-17T11:24:56.188Z,1011.11
2016-10-17T11:25:56.210Z,1011.1
2016-10-17T11:26:56.231Z,1011.09
2016-10-17T11:27:56.253Z,1011.12
2016-10-17T11:28:56.276Z,1011.13
2016-10-17T11:29:56.300Z,1011.15
2016-10-17T11:30:56.319Z,1011.1
2016-10-17T11:31:56.342Z,1011.14
2016-10-17T11:32:56.363Z,1011.11
2016-10-17T11:33:56.383Z,1011.11
2016-10-17T11:34:56.407Z,1011.06
2016-10-17T11:35:56.428Z,1011.06
2016-10-17T11:36:56.450Z,1011.08
2016-10-17T11:37:56.473Z,1011.07
2016-10-17T11:38:56.494Z,1011.03
2016-10-17T11:39:56.517Z,1011.03
2016-10-17T11:40:56.539Z,1011.04
2016-10-17T11:41:56.562Z,1011.04
2016-10-17T11:42:56.678Z,1011.04
2016-10-17T11:43:56.605Z,1011.02
2016-10-17T11:44:56.626Z,1010.99
2016-10-17T11:45:56.649Z,1010.97
2016-10-17T11:46:56.671Z,1010.96
2016-10-17T11:47:56.703Z,1010.96
2016-10-17T11:48:56.743Z,1010.96
2016-10-17T11:49:56.738Z,1011
2016-10-17T11:50:56.759Z,1010.97
2016-10-17T11:51:56.781Z,1010.98
2016-10-17T11:52:56.804Z,1010.92
2016-10-17T11:53:56.826Z,1010.91
2016-10-17T11:54:56.849Z,1010.86
2016-10-17T11:55:56.870Z,1010.89
2016-10-17T11:56:56.894Z,1010.88
2016-10-17T11:57:56.915Z,1010.86
2016-10-17T11:58:56.939Z,1010.86
2016-10-17T11:59:56.959Z,1010.85
2016-10-17T12:00:56.982Z,1010.88
2016-10-17T12:01:57.006Z,1010.85
2016-10-17T12:02:57.026Z,1010.84
2016-10-17T12:03:57.050Z,1010.87
2016-10-17T12:04:57.071Z,1010.93
2016-10-17T12:05:57.094Z,1010.9
2016-10-17T12:06:57.117Z,1010.93
2016-10-17T12:07:57.179Z,1010.93
2016-10-17T12:08:57.169Z,1010.93
2016-10-17T12:09:57.184Z,1010.91